Inicio METAR Ruta Wind Satelite

Informe Meteorológico

Fecha: 2024/06/18 20:03:07 Local
2024.06.19 01:03 UTC


Operación:VFR
SKMR 190000Z 30004KT 280V340 9999 FEW013 28/24 Q1008 =

SKMR 182300Z 30004KT 280V340 9999 FEW013 29/24 Q1006
SKMR 182200Z 29005KT 270V330 9999 FEW015 29/24 Q1006
SKMR 182100Z 28005KT 240V300 9999 FEW015 30/24 Q1007
SKMR 182000Z 29009KT 260V320 9999 FEW015 29/23 Q1007
SKMR 181900Z 28009KT 250V320 9999 FEW017 32/25 Q1008